sensor_id;sensor_type;location;lat;lon;timestamp;P1;durP1;ratioP1;P2;durP2;ratioP2
74551;SDS011;63025;55.472;38.432;2024-02-23T00:01:27;29.98;;;12.57;;
74551;SDS011;63025;55.472;38.432;2024-02-23T00:03:53;32.15;;;12.20;;
74551;SDS011;63025;55.472;38.432;2024-02-23T00:06:20;31.92;;;12.93;;
74551;SDS011;63025;55.472;38.432;2024-02-23T00:08:48;31.45;;;12.48;;
74551;SDS011;63025;55.472;38.432;2024-02-23T00:11:14;28.40;;;12.27;;
74551;SDS011;63025;55.472;38.432;2024-02-23T00:13:39;32.00;;;12.30;;
74551;SDS011;63025;55.472;38.432;2024-02-23T00:16:05;31.27;;;12.63;;
74551;SDS011;63025;55.472;38.432;2024-02-23T00:18:31;30.13;;;12.27;;
74551;SDS011;63025;55.472;38.432;2024-02-23T00:20:57;29.05;;;11.43;;
74551;SDS011;63025;55.472;38.432;2024-02-23T00:23:23;36.97;;;12.73;;
74551;SDS011;63025;55.472;38.432;2024-02-23T00:25:48;36.90;;;12.85;;
74551;SDS011;63025;55.472;38.432;2024-02-23T00:28:14;33.22;;;13.52;;
74551;SDS011;63025;55.472;38.432;2024-02-23T00:30:40;31.73;;;13.15;;
74551;SDS011;63025;55.472;38.432;2024-02-23T00:33:06;36.88;;;11.90;;
74551;SDS011;63025;55.472;38.432;2024-02-23T00:35:31;35.33;;;13.05;;
74551;SDS011;63025;55.472;38.432;2024-02-23T00:37:57;29.63;;;12.38;;
74551;SDS011;63025;55.472;38.432;2024-02-23T00:40:23;29.38;;;12.52;;
74551;SDS011;63025;55.472;38.432;2024-02-23T00:42:49;28.27;;;12.52;;
74551;SDS011;63025;55.472;38.432;2024-02-23T00:45:15;28.35;;;12.50;;
74551;SDS011;63025;55.472;38.432;2024-02-23T00:47:42;31.30;;;12.50;;
74551;SDS011;63025;55.472;38.432;2024-02-23T00:50:09;32.95;;;13.55;;
74551;SDS011;63025;55.472;38.432;2024-02-23T00:52:35;25.77;;;11.90;;
74551;SDS011;63025;55.472;38.432;2024-02-23T00:55:01;31.92;;;13.00;;
74551;SDS011;63025;55.472;38.432;2024-02-23T00:57:29;26.15;;;10.18;;
74551;SDS011;63025;55.472;38.432;2024-02-23T00:59:56;27.85;;;11.55;;
74551;SDS011;63025;55.472;38.432;2024-02-23T01:02:22;29.77;;;13.07;;
74551;SDS011;63025;55.472;38.432;2024-02-23T01:04:48;36.78;;;13.20;;
74551;SDS011;63025;55.472;38.432;2024-02-23T01:07:14;34.20;;;13.40;;
74551;SDS011;63025;55.472;38.432;2024-02-23T01:09:39;32.95;;;13.00;;
74551;SDS011;63025;55.472;38.432;2024-02-23T01:12:05;32.83;;;13.50;;
74551;SDS011;63025;55.472;38.432;2024-02-23T01:14:31;37.30;;;12.98;;
74551;SDS011;63025;55.472;38.432;2024-02-23T01:16:57;32.80;;;14.38;;
74551;SDS011;63025;55.472;38.432;2024-02-23T01:19:23;29.10;;;13.52;;
74551;SDS011;63025;55.472;38.432;2024-02-23T01:21:49;36.45;;;14.43;;
74551;SDS011;63025;55.472;38.432;2024-02-23T01:24:21;34.03;;;14.30;;
74551;SDS011;63025;55.472;38.432;2024-02-23T01:26:47;29.08;;;10.27;;
74551;SDS011;63025;55.472;38.432;2024-02-23T01:29:13;31.80;;;12.98;;
74551;SDS011;63025;55.472;38.432;2024-02-23T01:31:39;29.35;;;13.55;;
74551;SDS011;63025;55.472;38.432;2024-02-23T01:34:04;28.48;;;12.07;;
74551;SDS011;63025;55.472;38.432;2024-02-23T01:36:31;26.40;;;11.30;;
74551;SDS011;63025;55.472;38.432;2024-02-23T01:38:57;31.33;;;13.43;;
74551;SDS011;63025;55.472;38.432;2024-02-23T01:41:22;33.20;;;13.93;;
74551;SDS011;63025;55.472;38.432;2024-02-23T01:43:48;28.67;;;12.00;;
74551;SDS011;63025;55.472;38.432;2024-02-23T01:46:15;26.25;;;12.95;;
74551;SDS011;63025;55.472;38.432;2024-02-23T01:48:43;26.35;;;11.25;;
74551;SDS011;63025;55.472;38.432;2024-02-23T01:51:09;30.02;;;12.35;;
74551;SDS011;63025;55.472;38.432;2024-02-23T01:53:37;26.42;;;11.25;;
74551;SDS011;63025;55.472;38.432;2024-02-23T01:56:03;29.10;;;13.13;;
74551;SDS011;63025;55.472;38.432;2024-02-23T01:58:30;28.23;;;12.32;;
74551;SDS011;63025;55.472;38.432;2024-02-23T02:00:58;31.33;;;12.88;;
74551;SDS011;63025;55.472;38.432;2024-02-23T02:03:24;28.70;;;12.63;;
74551;SDS011;63025;55.472;38.432;2024-02-23T02:05:50;29.83;;;12.30;;
74551;SDS011;63025;55.472;38.432;2024-02-23T02:08:17;29.27;;;12.85;;
74551;SDS011;63025;55.472;38.432;2024-02-23T02:10:43;26.45;;;11.20;;
74551;SDS011;63025;55.472;38.432;2024-02-23T02:13:10;29.55;;;13.30;;
74551;SDS011;63025;55.472;38.432;2024-02-23T02:15:36;28.58;;;12.63;;
74551;SDS011;63025;55.472;38.432;2024-02-23T02:18:03;29.58;;;13.30;;
74551;SDS011;63025;55.472;38.432;2024-02-23T02:20:30;26.10;;;12.02;;
74551;SDS011;63025;55.472;38.432;2024-02-23T02:22:58;29.20;;;13.68;;
74551;SDS011;63025;55.472;38.432;2024-02-23T02:25:24;30.25;;;12.30;;
74551;SDS011;63025;55.472;38.432;2024-02-23T02:27:50;29.25;;;12.43;;
74551;SDS011;63025;55.472;38.432;2024-02-23T02:30:16;35.35;;;14.70;;
74551;SDS011;63025;55.472;38.432;2024-02-23T02:32:42;29.02;;;12.23;;
74551;SDS011;63025;55.472;38.432;2024-02-23T02:35:10;28.52;;;12.57;;
74551;SDS011;63025;55.472;38.432;2024-02-23T02:37:36;33.40;;;13.45;;
74551;SDS011;63025;55.472;38.432;2024-02-23T02:40:02;30.13;;;12.82;;
74551;SDS011;63025;55.472;38.432;2024-02-23T02:42:29;29.45;;;12.50;;
74551;SDS011;63025;55.472;38.432;2024-02-23T02:44:55;30.67;;;12.00;;
74551;SDS011;63025;55.472;38.432;2024-02-23T02:47:21;30.23;;;13.55;;
74551;SDS011;63025;55.472;38.432;2024-02-23T02:49:46;28.10;;;13.40;;
74551;SDS011;63025;55.472;38.432;2024-02-23T02:52:14;27.33;;;12.13;;
74551;SDS011;63025;55.472;38.432;2024-02-23T02:54:39;28.27;;;12.23;;
74551;SDS011;63025;55.472;38.432;2024-02-23T02:57:05;28.65;;;11.32;;
74551;SDS011;63025;55.472;38.432;2024-02-23T02:59:34;26.58;;;12.18;;
74551;SDS011;63025;55.472;38.432;2024-02-23T03:02:01;30.02;;;11.77;;
74551;SDS011;63025;55.472;38.432;2024-02-23T03:04:27;25.55;;;10.60;;
74551;SDS011;63025;55.472;38.432;2024-02-23T03:06:52;28.15;;;12.02;;
74551;SDS011;63025;55.472;38.432;2024-02-23T03:09:18;27.50;;;11.98;;
74551;SDS011;63025;55.472;38.432;2024-02-23T03:11:44;29.67;;;12.88;;
74551;SDS011;63025;55.472;38.432;2024-02-23T03:14:10;29.77;;;12.70;;
74551;SDS011;63025;55.472;38.432;2024-02-23T03:16:35;25.02;;;12.00;;
74551;SDS011;63025;55.472;38.432;2024-02-23T03:19:03;27.85;;;11.65;;
74551;SDS011;63025;55.472;38.432;2024-02-23T03:21:30;27.90;;;12.32;;
74551;SDS011;63025;55.472;38.432;2024-02-23T03:23:56;28.02;;;11.68;;
74551;SDS011;63025;55.472;38.432;2024-02-23T03:26:22;26.90;;;11.57;;
74551;SDS011;63025;55.472;38.432;2024-02-23T03:28:47;26.23;;;12.27;;
74551;SDS011;63025;55.472;38.432;2024-02-23T03:31:14;28.15;;;12.65;;
74551;SDS011;63025;55.472;38.432;2024-02-23T03:33:40;26.88;;;12.23;;
74551;SDS011;63025;55.472;38.432;2024-02-23T03:36:06;26.98;;;11.68;;
74551;SDS011;63025;55.472;38.432;2024-02-23T03:38:32;31.10;;;12.88;;
74551;SDS011;63025;55.472;38.432;2024-02-23T03:40:59;30.80;;;11.93;;
74551;SDS011;63025;55.472;38.432;2024-02-23T03:43:26;27.83;;;12.75;;
74551;SDS011;63025;55.472;38.432;2024-02-23T03:45:52;29.70;;;11.38;;
74551;SDS011;63025;55.472;38.432;2024-02-23T03:48:18;28.90;;;12.40;;
74551;SDS011;63025;55.472;38.432;2024-02-23T03:50:44;31.38;;;12.45;;
74551;SDS011;63025;55.472;38.432;2024-02-23T03:53:09;24.33;;;12.13;;
74551;SDS011;63025;55.472;38.432;2024-02-23T03:55:35;24.70;;;12.30;;
74551;SDS011;63025;55.472;38.432;2024-02-23T03:58:01;25.27;;;11.57;;
74551;SDS011;63025;55.472;38.432;2024-02-23T04:00:27;27.23;;;11.27;;
74551;SDS011;63025;55.472;38.432;2024-02-23T04:02:53;20.08;;;9.80;;
74551;SDS011;63025;55.472;38.432;2024-02-23T04:05:18;27.70;;;11.20;;
74551;SDS011;63025;55.472;38.432;2024-02-23T04:07:44;23.48;;;10.98;;
74551;SDS011;63025;55.472;38.432;2024-02-23T04:10:10;27.65;;;11.48;;
74551;SDS011;63025;55.472;38.432;2024-02-23T04:12:36;28.75;;;11.80;;
74551;SDS011;63025;55.472;38.432;2024-02-23T04:15:02;23.45;;;9.77;;
74551;SDS011;63025;55.472;38.432;2024-02-23T04:17:30;24.83;;;10.15;;
74551;SDS011;63025;55.472;38.432;2024-02-23T04:20:11;26.23;;;10.27;;
74551;SDS011;63025;55.472;38.432;2024-02-23T04:22:37;23.92;;;9.57;;
74551;SDS011;63025;55.472;38.432;2024-02-23T04:25:04;25.55;;;10.93;;
74551;SDS011;63025;55.472;38.432;2024-02-23T04:27:30;23.85;;;10.63;;
74551;SDS011;63025;55.472;38.432;2024-02-23T04:29:56;29.08;;;10.90;;
74551;SDS011;63025;55.472;38.432;2024-02-23T04:32:22;26.73;;;10.93;;
74551;SDS011;63025;55.472;38.432;2024-02-23T04:34:48;26.33;;;9.80;;
74551;SDS011;63025;55.472;38.432;2024-02-23T04:37:14;28.02;;;9.85;;
74551;SDS011;63025;55.472;38.432;2024-02-23T04:39:40;21.17;;;9.88;;
74551;SDS011;63025;55.472;38.432;2024-02-23T04:42:07;24.48;;;10.20;;
74551;SDS011;63025;55.472;38.432;2024-02-23T04:44:34;22.02;;;9.07;;
74551;SDS011;63025;55.472;38.432;2024-02-23T04:47:00;20.52;;;8.68;;
74551;SDS011;63025;55.472;38.432;2024-02-23T04:49:26;25.90;;;10.40;;
74551;SDS011;63025;55.472;38.432;2024-02-23T04:51:52;24.80;;;10.40;;
74551;SDS011;63025;55.472;38.432;2024-02-23T04:54:18;24.77;;;9.48;;
74551;SDS011;63025;55.472;38.432;2024-02-23T04:56:44;23.05;;;9.60;;
74551;SDS011;63025;55.472;38.432;2024-02-23T04:59:10;23.05;;;10.95;;
74551;SDS011;63025;55.472;38.432;2024-02-23T05:01:36;26.23;;;10.77;;
74551;SDS011;63025;55.472;38.432;2024-02-23T05:04:03;23.38;;;10.05;;
74551;SDS011;63025;55.472;38.432;2024-02-23T05:06:29;20.10;;;8.52;;
74551;SDS011;63025;55.472;38.432;2024-02-23T05:08:55;23.48;;;9.32;;
74551;SDS011;63025;55.472;38.432;2024-02-23T05:11:21;24.40;;;10.70;;
74551;SDS011;63025;55.472;38.432;2024-02-23T05:13:47;21.80;;;10.32;;
74551;SDS011;63025;55.472;38.432;2024-02-23T05:16:15;23.38;;;9.60;;
74551;SDS011;63025;55.472;38.432;2024-02-23T05:18:42;27.77;;;9.50;;
74551;SDS011;63025;55.472;38.432;2024-02-23T05:21:09;21.48;;;9.88;;
74551;SDS011;63025;55.472;38.432;2024-02-23T05:23:35;26.17;;;9.88;;
74551;SDS011;63025;55.472;38.432;2024-02-23T05:26:01;20.60;;;8.15;;
74551;SDS011;63025;55.472;38.432;2024-02-23T05:28:27;21.27;;;9.82;;
74551;SDS011;63025;55.472;38.432;2024-02-23T05:30:54;25.92;;;11.02;;
74551;SDS011;63025;55.472;38.432;2024-02-23T05:33:20;23.83;;;10.15;;
74551;SDS011;63025;55.472;38.432;2024-02-23T05:35:46;25.55;;;10.80;;
74551;SDS011;63025;55.472;38.432;2024-02-23T05:38:15;25.73;;;10.75;;
74551;SDS011;63025;55.472;38.432;2024-02-23T05:40:42;25.90;;;10.48;;
74551;SDS011;63025;55.472;38.432;2024-02-23T05:43:08;21.05;;;9.48;;
74551;SDS011;63025;55.472;38.432;2024-02-23T05:45:34;21.35;;;9.15;;
74551;SDS011;63025;55.472;38.432;2024-02-23T05:48:00;23.73;;;10.13;;
74551;SDS011;63025;55.472;38.432;2024-02-23T05:50:26;19.38;;;9.27;;
74551;SDS011;63025;55.472;38.432;2024-02-23T05:52:52;24.27;;;9.35;;
74551;SDS011;63025;55.472;38.432;2024-02-23T05:55:18;23.67;;;10.57;;
74551;SDS011;63025;55.472;38.432;2024-02-23T05:57:44;24.05;;;11.07;;
74551;SDS011;63025;55.472;38.432;2024-02-23T06:00:10;23.85;;;10.35;;
74551;SDS011;63025;55.472;38.432;2024-02-23T06:02:39;23.38;;;10.85;;
74551;SDS011;63025;55.472;38.432;2024-02-23T06:05:05;25.90;;;12.07;;
74551;SDS011;63025;55.472;38.432;2024-02-23T06:07:33;25.70;;;11.23;;
74551;SDS011;63025;55.472;38.432;2024-02-23T06:10:00;24.23;;;11.65;;
74551;SDS011;63025;55.472;38.432;2024-02-23T06:12:26;24.20;;;11.68;;
74551;SDS011;63025;55.472;38.432;2024-02-23T06:14:52;23.88;;;10.52;;
74551;SDS011;63025;55.472;38.432;2024-02-23T06:17:18;25.67;;;11.05;;
74551;SDS011;63025;55.472;38.432;2024-02-23T06:19:44;28.27;;;11.85;;
74551;SDS011;63025;55.472;38.432;2024-02-23T06:22:10;23.08;;;10.35;;
74551;SDS011;63025;55.472;38.432;2024-02-23T06:24:37;23.50;;;10.60;;
74551;SDS011;63025;55.472;38.432;2024-02-23T06:27:03;23.73;;;10.25;;
74551;SDS011;63025;55.472;38.432;2024-02-23T06:29:29;28.15;;;10.98;;
74551;SDS011;63025;55.472;38.432;2024-02-23T06:31:55;23.00;;;9.13;;
74551;SDS011;63025;55.472;38.432;2024-02-23T06:34:21;24.27;;;11.23;;
74551;SDS011;63025;55.472;38.432;2024-02-23T06:36:47;23.65;;;10.05;;
74551;SDS011;63025;55.472;38.432;2024-02-23T06:39:13;24.02;;;10.90;;
74551;SDS011;63025;55.472;38.432;2024-02-23T06:41:38;25.92;;;11.43;;
74551;SDS011;63025;55.472;38.432;2024-02-23T06:44:05;30.98;;;11.73;;
74551;SDS011;63025;55.472;38.432;2024-02-23T06:46:30;24.90;;;11.30;;
74551;SDS011;63025;55.472;38.432;2024-02-23T06:48:56;23.95;;;10.13;;
74551;SDS011;63025;55.472;38.432;2024-02-23T06:51:22;22.23;;;9.98;;
74551;SDS011;63025;55.472;38.432;2024-02-23T06:53:48;21.65;;;10.30;;
74551;SDS011;63025;55.472;38.432;2024-02-23T06:56:13;27.30;;;10.10;;
74551;SDS011;63025;55.472;38.432;2024-02-23T06:58:40;25.65;;;11.40;;
74551;SDS011;63025;55.472;38.432;2024-02-23T07:01:05;28.30;;;10.45;;
74551;SDS011;63025;55.472;38.432;2024-02-23T07:03:32;27.25;;;10.35;;
74551;SDS011;63025;55.472;38.432;2024-02-23T07:06:00;20.52;;;9.05;;
74551;SDS011;63025;55.472;38.432;2024-02-23T07:08:26;30.00;;;12.02;;
74551;SDS011;63025;55.472;38.432;2024-02-23T07:10:52;24.15;;;11.40;;
74551;SDS011;63025;55.472;38.432;2024-02-23T07:13:17;27.67;;;12.00;;
74551;SDS011;63025;55.472;38.432;2024-02-23T07:15:44;28.38;;;12.38;;
74551;SDS011;63025;55.472;38.432;2024-02-23T07:18:10;29.55;;;12.23;;
74551;SDS011;63025;55.472;38.432;2024-02-23T07:20:36;28.60;;;11.73;;
74551;SDS011;63025;55.472;38.432;2024-02-23T07:23:02;30.75;;;12.48;;
74551;SDS011;63025;55.472;38.432;2024-02-23T07:25:29;30.83;;;12.65;;
74551;SDS011;63025;55.472;38.432;2024-02-23T07:27:55;31.35;;;13.30;;
74551;SDS011;63025;55.472;38.432;2024-02-23T07:30:21;27.45;;;11.93;;
74551;SDS011;63025;55.472;38.432;2024-02-23T07:32:47;29.23;;;12.35;;
74551;SDS011;63025;55.472;38.432;2024-02-23T07:35:12;27.92;;;12.48;;
74551;SDS011;63025;55.472;38.432;2024-02-23T07:37:39;28.25;;;12.63;;
74551;SDS011;63025;55.472;38.432;2024-02-23T07:40:05;31.30;;;12.40;;
74551;SDS011;63025;55.472;38.432;2024-02-23T07:42:31;24.30;;;11.40;;
74551;SDS011;63025;55.472;38.432;2024-02-23T07:44:58;26.60;;;10.50;;
74551;SDS011;63025;55.472;38.432;2024-02-23T07:47:24;26.73;;;11.95;;
74551;SDS011;63025;55.472;38.432;2024-02-23T07:49:53;24.95;;;10.57;;
74551;SDS011;63025;55.472;38.432;2024-02-23T07:52:19;25.80;;;11.65;;
74551;SDS011;63025;55.472;38.432;2024-02-23T07:54:45;30.30;;;11.82;;
74551;SDS011;63025;55.472;38.432;2024-02-23T07:57:11;25.20;;;11.43;;
74551;SDS011;63025;55.472;38.432;2024-02-23T07:59:39;25.33;;;11.98;;
74551;SDS011;63025;55.472;38.432;2024-02-23T08:02:05;31.30;;;13.23;;
74551;SDS011;63025;55.472;38.432;2024-02-23T08:04:30;30.98;;;11.88;;
74551;SDS011;63025;55.472;38.432;2024-02-23T08:06:56;29.40;;;12.73;;
74551;SDS011;63025;55.472;38.432;2024-02-23T08:09:23;30.08;;;13.20;;
74551;SDS011;63025;55.472;38.432;2024-02-23T08:11:49;28.27;;;12.13;;
74551;SDS011;63025;55.472;38.432;2024-02-23T08:14:16;23.55;;;11.15;;
74551;SDS011;63025;55.472;38.432;2024-02-23T08:16:43;24.70;;;11.43;;
74551;SDS011;63025;55.472;38.432;2024-02-23T08:19:09;27.80;;;12.48;;
74551;SDS011;63025;55.472;38.432;2024-02-23T08:21:35;28.52;;;11.82;;
74551;SDS011;63025;55.472;38.432;2024-02-23T08:24:01;31.70;;;11.63;;
74551;SDS011;63025;55.472;38.432;2024-02-23T08:26:28;22.67;;;10.52;;
74551;SDS011;63025;55.472;38.432;2024-02-23T08:28:54;24.95;;;11.57;;
74551;SDS011;63025;55.472;38.432;2024-02-23T08:31:20;24.80;;;11.88;;
74551;SDS011;63025;55.472;38.432;2024-02-23T08:33:45;21.90;;;9.20;;
74551;SDS011;63025;55.472;38.432;2024-02-23T08:36:12;28.40;;;12.57;;
74551;SDS011;63025;55.472;38.432;2024-02-23T08:38:38;24.67;;;11.48;;
74551;SDS011;63025;55.472;38.432;2024-02-23T08:41:04;25.45;;;11.32;;
74551;SDS011;63025;55.472;38.432;2024-02-23T08:43:30;29.77;;;11.45;;
74551;SDS011;63025;55.472;38.432;2024-02-23T08:45:55;27.85;;;10.77;;
74551;SDS011;63025;55.472;38.432;2024-02-23T08:48:21;22.58;;;10.52;;
74551;SDS011;63025;55.472;38.432;2024-02-23T08:50:47;23.27;;;10.18;;
74551;SDS011;63025;55.472;38.432;2024-02-23T08:53:13;23.80;;;11.40;;
74551;SDS011;63025;55.472;38.432;2024-02-23T08:55:39;20.08;;;9.48;;
74551;SDS011;63025;55.472;38.432;2024-02-23T08:58:08;20.77;;;9.30;;
74551;SDS011;63025;55.472;38.432;2024-02-23T09:00:34;25.42;;;11.27;;
74551;SDS011;63025;55.472;38.432;2024-02-23T09:03:02;25.40;;;11.00;;
74551;SDS011;63025;55.472;38.432;2024-02-23T09:05:29;27.10;;;10.40;;
74551;SDS011;63025;55.472;38.432;2024-02-23T09:07:54;26.60;;;11.95;;
74551;SDS011;63025;55.472;38.432;2024-02-23T09:10:20;21.95;;;9.45;;
74551;SDS011;63025;55.472;38.432;2024-02-23T09:12:46;21.48;;;9.80;;
74551;SDS011;63025;55.472;38.432;2024-02-23T09:15:12;27.67;;;11.68;;
74551;SDS011;63025;55.472;38.432;2024-02-23T09:17:39;30.20;;;12.98;;
74551;SDS011;63025;55.472;38.432;2024-02-23T09:20:06;27.25;;;12.20;;
74551;SDS011;63025;55.472;38.432;2024-02-23T09:22:33;21.40;;;9.38;;
74551;SDS011;63025;55.472;38.432;2024-02-23T09:24:59;26.95;;;12.32;;
74551;SDS011;63025;55.472;38.432;2024-02-23T09:27:25;27.08;;;11.90;;
74551;SDS011;63025;55.472;38.432;2024-02-23T09:29:50;23.20;;;10.25;;
74551;SDS011;63025;55.472;38.432;2024-02-23T09:32:16;30.30;;;12.82;;
74551;SDS011;63025;55.472;38.432;2024-02-23T09:34:42;24.50;;;12.20;;
74551;SDS011;63025;55.472;38.432;2024-02-23T09:37:08;25.00;;;11.68;;
74551;SDS011;63025;55.472;38.432;2024-02-23T09:39:35;26.08;;;11.23;;
74551;SDS011;63025;55.472;38.432;2024-02-23T09:42:01;20.95;;;10.50;;
74551;SDS011;63025;55.472;38.432;2024-02-23T09:44:32;20.85;;;9.52;;
74551;SDS011;63025;55.472;38.432;2024-02-23T09:47:01;24.88;;;11.25;;
74551;SDS011;63025;55.472;38.432;2024-02-23T09:49:37;22.65;;;10.13;;
74551;SDS011;63025;55.472;38.432;2024-02-23T09:52:05;23.00;;;11.48;;
74551;SDS011;63025;55.472;38.432;2024-02-23T09:54:33;24.10;;;10.82;;
74551;SDS011;63025;55.472;38.432;2024-02-23T09:57:00;23.50;;;9.63;;
74551;SDS011;63025;55.472;38.432;2024-02-23T09:59:28;24.38;;;10.77;;
74551;SDS011;63025;55.472;38.432;2024-02-23T10:01:56;21.98;;;9.60;;
74551;SDS011;63025;55.472;38.432;2024-02-23T10:04:22;28.85;;;11.15;;
74551;SDS011;63025;55.472;38.432;2024-02-23T10:06:51;22.15;;;10.88;;
74551;SDS011;63025;55.472;38.432;2024-02-23T10:09:17;21.35;;;11.13;;
74551;SDS011;63025;55.472;38.432;2024-02-23T10:11:42;16.17;;;8.38;;
74551;SDS011;63025;55.472;38.432;2024-02-23T10:14:08;24.20;;;10.15;;
74551;SDS011;63025;55.472;38.432;2024-02-23T10:16:34;24.35;;;11.63;;
74551;SDS011;63025;55.472;38.432;2024-02-23T10:19:00;29.33;;;10.63;;
74551;SDS011;63025;55.472;38.432;2024-02-23T10:21:26;22.42;;;9.55;;
74551;SDS011;63025;55.472;38.432;2024-02-23T10:23:55;24.77;;;11.43;;
74551;SDS011;63025;55.472;38.432;2024-02-23T10:26:21;22.77;;;11.25;;
74551;SDS011;63025;55.472;38.432;2024-02-23T10:28:48;22.27;;;9.48;;
74551;SDS011;63025;55.472;38.432;2024-02-23T10:31:14;18.92;;;10.05;;
74551;SDS011;63025;55.472;38.432;2024-02-23T10:33:40;21.83;;;9.60;;
74551;SDS011;63025;55.472;38.432;2024-02-23T10:36:07;23.15;;;10.82;;
74551;SDS011;63025;55.472;38.432;2024-02-23T10:38:37;23.35;;;10.20;;
74551;SDS011;63025;55.472;38.432;2024-02-23T10:41:07;26.17;;;10.77;;
74551;SDS011;63025;55.472;38.432;2024-02-23T10:43:41;25.75;;;10.55;;
74551;SDS011;63025;55.472;38.432;2024-02-23T10:46:09;25.60;;;10.75;;
74551;SDS011;63025;55.472;38.432;2024-02-23T10:48:44;19.52;;;10.02;;
74551;SDS011;63025;55.472;38.432;2024-02-23T10:51:12;23.63;;;10.88;;
74551;SDS011;63025;55.472;38.432;2024-02-23T10:53:39;23.90;;;10.02;;
74551;SDS011;63025;55.472;38.432;2024-02-23T10:56:06;22.65;;;11.07;;
74551;SDS011;63025;55.472;38.432;2024-02-23T10:58:32;27.33;;;11.70;;
74551;SDS011;63025;55.472;38.432;2024-02-23T11:01:02;24.92;;;9.82;;
74551;SDS011;63025;55.472;38.432;2024-02-23T11:03:32;25.70;;;9.68;;
74551;SDS011;63025;55.472;38.432;2024-02-23T11:06:00;25.33;;;11.23;;
74551;SDS011;63025;55.472;38.432;2024-02-23T11:08:29;27.73;;;11.48;;
74551;SDS011;63025;55.472;38.432;2024-02-23T11:10:55;24.90;;;10.93;;
74551;SDS011;63025;55.472;38.432;2024-02-23T11:13:30;24.20;;;9.93;;
74551;SDS011;63025;55.472;38.432;2024-02-23T11:16:03;23.73;;;10.02;;
74551;SDS011;63025;55.472;38.432;2024-02-23T11:18:30;27.08;;;10.77;;
74551;SDS011;63025;55.472;38.432;2024-02-23T11:21:00;28.08;;;11.55;;
74551;SDS011;63025;55.472;38.432;2024-02-23T11:26:30;26.52;;;10.52;;
74551;SDS011;63025;55.472;38.432;2024-02-23T11:28:57;26.02;;;11.32;;
74551;SDS011;63025;55.472;38.432;2024-02-23T11:31:24;31.05;;;13.02;;
74551;SDS011;63025;55.472;38.432;2024-02-23T11:33:52;25.70;;;11.10;;
74551;SDS011;63025;55.472;38.432;2024-02-23T11:36:28;31.15;;;12.10;;
74551;SDS011;63025;55.472;38.432;2024-02-23T11:38:59;28.08;;;10.27;;
74551;SDS011;63025;55.472;38.432;2024-02-23T11:41:26;26.80;;;11.15;;
74551;SDS011;63025;55.472;38.432;2024-02-23T11:43:53;31.88;;;14.05;;
74551;SDS011;63025;55.472;38.432;2024-02-23T11:46:25;41.85;;;14.95;;
74551;SDS011;63025;55.472;38.432;2024-02-23T11:48:51;48.10;;;17.63;;
74551;SDS011;63025;55.472;38.432;2024-02-23T11:51:21;37.20;;;13.85;;
74551;SDS011;63025;55.472;38.432;2024-02-23T11:53:49;36.47;;;14.30;;
74551;SDS011;63025;55.472;38.432;2024-02-23T11:56:15;37.00;;;14.13;;
74551;SDS011;63025;55.472;38.432;2024-02-23T11:58:42;34.63;;;15.10;;
74551;SDS011;63025;55.472;38.432;2024-02-23T12:01:09;39.00;;;15.00;;
74551;SDS011;63025;55.472;38.432;2024-02-23T12:03:34;38.03;;;15.70;;
74551;SDS011;63025;55.472;38.432;2024-02-23T12:06:01;29.23;;;13.90;;
74551;SDS011;63025;55.472;38.432;2024-02-23T12:08:28;36.05;;;14.30;;
74551;SDS011;63025;55.472;38.432;2024-02-23T12:10:57;37.08;;;14.50;;
74551;SDS011;63025;55.472;38.432;2024-02-23T12:13:25;34.78;;;13.38;;
74551;SDS011;63025;55.472;38.432;2024-02-23T12:15:52;45.05;;;18.25;;
74551;SDS011;63025;55.472;38.432;2024-02-23T12:18:22;37.17;;;15.65;;
74551;SDS011;63025;55.472;38.432;2024-02-23T12:21:06;33.00;;;15.00;;
74551;SDS011;63025;55.472;38.432;2024-02-23T12:23:40;35.67;;;12.52;;
74551;SDS011;63025;55.472;38.432;2024-02-23T12:26:15;27.23;;;12.07;;
74551;SDS011;63025;55.472;38.432;2024-02-23T12:28:42;34.70;;;13.68;;
74551;SDS011;63025;55.472;38.432;2024-02-23T12:31:10;37.15;;;13.52;;
74551;SDS011;63025;55.472;38.432;2024-02-23T12:33:37;35.50;;;12.98;;
74551;SDS011;63025;55.472;38.432;2024-02-23T12:36:07;34.47;;;14.77;;
74551;SDS011;63025;55.472;38.432;2024-02-23T12:38:35;34.83;;;14.23;;
74551;SDS011;63025;55.472;38.432;2024-02-23T12:41:02;36.10;;;13.32;;
74551;SDS011;63025;55.472;38.432;2024-02-23T12:43:28;30.63;;;14.00;;
74551;SDS011;63025;55.472;38.432;2024-02-23T12:45:55;29.33;;;11.30;;
74551;SDS011;63025;55.472;38.432;2024-02-23T12:48:21;37.53;;;14.65;;
74551;SDS011;63025;55.472;38.432;2024-02-23T12:50:48;39.55;;;15.27;;
74551;SDS011;63025;55.472;38.432;2024-02-23T12:53:31;34.03;;;14.02;;
74551;SDS011;63025;55.472;38.432;2024-02-23T12:55:58;31.77;;;13.35;;
74551;SDS011;63025;55.472;38.432;2024-02-23T12:58:24;31.83;;;13.25;;
74551;SDS011;63025;55.472;38.432;2024-02-23T13:00:53;25.92;;;12.32;;
74551;SDS011;63025;55.472;38.432;2024-02-23T13:03:19;33.90;;;12.77;;
74551;SDS011;63025;55.472;38.432;2024-02-23T13:05:45;30.95;;;10.93;;
74551;SDS011;63025;55.472;38.432;2024-02-23T13:08:12;27.50;;;12.05;;
74551;SDS011;63025;55.472;38.432;2024-02-23T13:10:38;29.35;;;13.45;;
74551;SDS011;63025;55.472;38.432;2024-02-23T13:13:04;33.67;;;14.05;;
74551;SDS011;63025;55.472;38.432;2024-02-23T13:15:30;30.27;;;13.07;;
74551;SDS011;63025;55.472;38.432;2024-02-23T13:17:56;33.53;;;12.65;;
74551;SDS011;63025;55.472;38.432;2024-02-23T13:20:23;34.63;;;12.95;;
74551;SDS011;63025;55.472;38.432;2024-02-23T13:22:49;24.67;;;11.88;;
74551;SDS011;63025;55.472;38.432;2024-02-23T13:25:15;30.70;;;13.38;;
74551;SDS011;63025;55.472;38.432;2024-02-23T13:27:41;29.10;;;12.48;;
74551;SDS011;63025;55.472;38.432;2024-02-23T13:30:07;30.70;;;12.63;;
74551;SDS011;63025;55.472;38.432;2024-02-23T13:32:34;32.70;;;13.20;;
74551;SDS011;63025;55.472;38.432;2024-02-23T13:35:00;33.67;;;13.40;;
74551;SDS011;63025;55.472;38.432;2024-02-23T13:37:30;31.52;;;12.48;;
74551;SDS011;63025;55.472;38.432;2024-02-23T13:39:56;31.83;;;12.85;;
74551;SDS011;63025;55.472;38.432;2024-02-23T13:42:24;29.23;;;13.60;;
74551;SDS011;63025;55.472;38.432;2024-02-23T13:44:50;34.42;;;14.38;;
74551;SDS011;63025;55.472;38.432;2024-02-23T13:47:16;32.53;;;13.43;;
74551;SDS011;63025;55.472;38.432;2024-02-23T13:49:42;35.92;;;14.02;;
74551;SDS011;63025;55.472;38.432;2024-02-23T13:52:08;35.28;;;15.65;;
74551;SDS011;63025;55.472;38.432;2024-02-23T13:54:34;36.58;;;14.48;;
74551;SDS011;63025;55.472;38.432;2024-02-23T13:57:00;31.35;;;12.90;;
74551;SDS011;63025;55.472;38.432;2024-02-23T13:59:26;30.55;;;13.05;;
74551;SDS011;63025;55.472;38.432;2024-02-23T14:01:52;31.08;;;14.63;;
74551;SDS011;63025;55.472;38.432;2024-02-23T14:04:18;31.98;;;13.18;;
74551;SDS011;63025;55.472;38.432;2024-02-23T14:06:44;32.25;;;14.65;;
74551;SDS011;63025;55.472;38.432;2024-02-23T14:09:10;34.70;;;14.20;;
74551;SDS011;63025;55.472;38.432;2024-02-23T14:11:36;32.38;;;13.70;;